createdAt,value
2018-04-28T00:01:02.964Z,15.9
2018-04-28T00:11:03.815Z,15.6
2018-04-28T00:21:03.813Z,15.4
2018-04-28T00:31:03.682Z,16.4
2018-04-28T00:41:03.538Z,15.1
2018-04-28T00:51:03.321Z,16.1
2018-04-28T01:01:03.172Z,16.9
2018-04-28T01:11:03.100Z,15.6
2018-04-28T01:21:03.145Z,16.8
2018-04-28T01:31:03.021Z,18.3
2018-04-28T01:41:03.883Z,17.8
2018-04-28T01:51:03.723Z,17.6
2018-04-28T02:01:03.595Z,16.6
2018-04-28T02:11:03.384Z,16.6
2018-04-28T02:21:03.344Z,16.8
2018-04-28T02:31:03.179Z,17.1
2018-04-28T02:41:03.041Z,16.2
2018-04-28T02:51:03.885Z,15.8
2018-04-28T03:01:03.754Z,15.7
2018-04-28T03:11:03.530Z,14.5
2018-04-28T03:21:03.456Z,13.8
2018-04-28T03:31:03.390Z,13.8
2018-04-28T03:41:03.182Z,13.4
2018-04-28T03:51:02.952Z,13.3
2018-04-28T04:01:03.705Z,14.5
2018-04-28T04:11:03.523Z,14.6
2018-04-28T04:21:03.422Z,19.8
2018-04-28T04:31:03.330Z,14.5
2018-04-28T04:41:03.178Z,17.8
2018-04-28T04:51:03.065Z,14.2
2018-04-28T05:01:03.812Z,15.0
2018-04-28T05:11:03.671Z,14.2
2018-04-28T05:21:03.626Z,14.2
2018-04-28T05:31:03.475Z,15.6
2018-04-28T05:41:03.318Z,16.1
2018-04-28T05:51:03.184Z,15.9
2018-04-28T06:01:03.023Z,19.5
2018-04-28T06:11:03.870Z,16.3
2018-04-28T06:21:03.829Z,16.4
2018-04-28T06:31:03.660Z,17.8
2018-04-28T06:41:28.189Z,17.2
2018-04-28T06:53:47.890Z,19.5
2018-04-28T07:01:03.914Z,15.2
2018-04-28T07:11:03.868Z,12.1
2018-04-28T07:21:04.059Z,10.3
2018-04-28T07:31:04.102Z,10.8
2018-04-28T07:41:03.937Z,10.6
2018-04-28T07:51:03.737Z,8.4
2018-04-28T08:01:03.519Z,9.0
2018-04-28T08:11:03.410Z,7.6
2018-04-28T08:21:03.434Z,7.1
2018-04-28T08:31:03.318Z,8.0
2018-04-28T08:41:03.201Z,6.7
2018-04-28T08:51:03.258Z,7.4
2018-04-28T09:01:03.277Z,8.0
2018-04-28T09:11:03.174Z,6.0
2018-04-28T09:21:03.193Z,6.5
2018-04-28T09:31:04.071Z,7.5
2018-04-28T09:41:03.980Z,5.3
2018-04-28T09:51:03.872Z,6.0
2018-04-28T10:01:03.777Z,5.5
2018-04-28T10:11:02.686Z,6.7
2018-04-28T10:21:03.731Z,5.9
2018-04-28T10:31:02.802Z,5.9
2018-04-28T10:41:03.660Z,7.2
2018-04-28T10:51:03.634Z,5.5
2018-04-28T11:01:03.603Z,5.5
2018-04-28T11:11:03.589Z,5.3
2018-04-28T11:21:03.614Z,5.1
2018-04-28T11:31:02.621Z,4.1
2018-04-28T11:41:03.481Z,4.1
2018-04-28T11:51:02.384Z,5.0
2018-04-28T12:01:03.267Z,3.7
2018-04-28T12:11:03.189Z,4.4
2018-04-28T12:21:02.271Z,3.8
2018-04-28T12:31:02.274Z,3.6
2018-04-28T12:41:02.289Z,6.7
2018-04-28T12:51:02.169Z,3.5
2018-04-28T13:01:03.091Z,3.9
2018-04-28T13:11:04.010Z,4.1
2018-04-28T13:21:04.162Z,4.6
2018-04-28T13:31:03.126Z,3.7
2018-04-28T13:41:04.104Z,5.9
2018-04-28T13:51:04.056Z,3.4
2018-04-28T14:01:03.016Z,3.1
2018-04-28T14:11:02.912Z,3.5
2018-04-28T14:21:03.013Z,4.7
2018-04-28T14:31:03.965Z,4.1
2018-04-28T14:41:02.933Z,5.1
2018-04-28T14:51:03.802Z,3.5
2018-04-28T15:01:03.785Z,4.4
2018-04-28T15:11:02.740Z,5.2
2018-04-28T15:21:03.828Z,9.3
2018-04-28T15:31:03.848Z,5.6
2018-04-28T15:41:02.826Z,5.8
2018-04-28T15:51:03.845Z,4.1
2018-04-28T16:01:02.776Z,8.4
2018-04-28T16:11:02.662Z,4.9
2018-04-28T16:21:03.584Z,5.6
2018-04-28T16:31:03.602Z,5.0
2018-04-28T16:41:03.533Z,7.7
2018-04-28T16:51:03.483Z,10.0
2018-04-28T17:01:03.510Z,14.3
2018-04-28T17:11:03.445Z,11.0
2018-04-28T17:21:03.475Z,15.5
2018-04-28T17:31:02.422Z,18.8
2018-04-28T17:41:03.355Z,12.7
2018-04-28T17:51:04.295Z,11.4
2018-04-28T18:01:04.205Z,11.7
2018-04-28T18:11:04.139Z,15.5
2018-04-28T18:21:03.217Z,20.5
2018-04-28T18:31:03.158Z,24.9
2018-04-28T18:41:04.011Z,23.9
2018-04-28T18:51:03.966Z,31.6
2018-04-28T19:01:03.916Z,51.1
2018-04-28T19:11:03.882Z,22.5
2018-04-28T19:21:03.085Z,25.5
2018-04-28T19:31:04.054Z,21.6
2018-04-28T19:41:02.995Z,18.3
2018-04-28T19:51:03.911Z,21.3
2018-04-28T20:01:03.826Z,29.3
2018-04-28T20:11:03.768Z,22.2
2018-04-28T20:21:03.798Z,17.0
2018-04-28T20:31:03.707Z,15.6
2018-04-28T20:41:03.634Z,16.8
2018-04-28T20:51:02.631Z,15.7
2018-04-28T21:01:03.618Z,19.6
2018-04-28T21:11:03.596Z,16.7
2018-04-28T21:21:03.692Z,25.2
2018-04-28T21:31:03.629Z,25.9
2018-04-28T21:41:03.507Z,28.2
2018-04-28T21:51:03.440Z,24.5
2018-04-28T22:01:04.402Z,29.2
2018-04-28T22:11:04.265Z,29.5
2018-04-28T22:21:04.256Z,30.2
2018-04-28T22:31:04.088Z,29.9
2018-04-28T22:41:04.199Z,27.8
2018-04-28T22:51:04.163Z,31.6
2018-04-28T23:01:04.121Z,29.0
2018-04-28T23:11:04.019Z,30.8
2018-04-28T23:21:04.119Z,29.5
2018-04-28T23:31:03.934Z,30.2
2018-04-28T23:41:03.844Z,28.3
2018-04-28T23:51:03.745Z,30.8
